sensor_id;sensor_type;location;lat;lon;timestamp;temperature;humidity
15364;DHT22;7781;49.690;6.472;2023-12-14T00:00:02;7.40;99.90
15364;DHT22;7781;49.690;6.472;2023-12-14T00:02:33;7.50;99.90
15364;DHT22;7781;49.690;6.472;2023-12-14T00:05:02;7.40;99.90
15364;DHT22;7781;49.690;6.472;2023-12-14T00:07:31;7.50;99.90
15364;DHT22;7781;49.690;6.472;2023-12-14T00:09:59;7.50;99.90
15364;DHT22;7781;49.690;6.472;2023-12-14T00:12:28;7.40;99.90
15364;DHT22;7781;49.690;6.472;2023-12-14T00:14:56;7.40;99.90
15364;DHT22;7781;49.690;6.472;2023-12-14T00:17:24;7.50;99.90
15364;DHT22;7781;49.690;6.472;2023-12-14T00:19:55;7.50;99.90
15364;DHT22;7781;49.690;6.472;2023-12-14T00:22:24;7.50;99.90
15364;DHT22;7781;49.690;6.472;2023-12-14T00:24:54;7.40;99.90
15364;DHT22;7781;49.690;6.472;2023-12-14T00:27:22;7.40;99.90
15364;DHT22;7781;49.690;6.472;2023-12-14T00:29:51;7.40;99.90
15364;DHT22;7781;49.690;6.472;2023-12-14T00:32:19;7.40;99.90
15364;DHT22;7781;49.690;6.472;2023-12-14T00:34:48;7.40;99.90
15364;DHT22;7781;49.690;6.472;2023-12-14T00:37:20;7.40;99.90
15364;DHT22;7781;49.690;6.472;2023-12-14T00:39:49;7.40;99.90
15364;DHT22;7781;49.690;6.472;2023-12-14T00:42:17;7.40;99.90
15364;DHT22;7781;49.690;6.472;2023-12-14T00:44:46;7.40;99.90
15364;DHT22;7781;49.690;6.472;2023-12-14T00:47:17;7.40;99.90
15364;DHT22;7781;49.690;6.472;2023-12-14T00:49:45;7.40;99.90
15364;DHT22;7781;49.690;6.472;2023-12-14T00:52:14;7.40;99.90
15364;DHT22;7781;49.690;6.472;2023-12-14T00:54:44;7.40;99.90
15364;DHT22;7781;49.690;6.472;2023-12-14T00:57:13;7.40;99.90
15364;DHT22;7781;49.690;6.472;2023-12-14T00:59:41;7.40;99.90
15364;DHT22;7781;49.690;6.472;2023-12-14T01:02:10;7.40;99.90
15364;DHT22;7781;49.690;6.472;2023-12-14T01:04:38;7.40;99.90
15364;DHT22;7781;49.690;6.472;2023-12-14T01:07:07;7.30;99.90
15364;DHT22;7781;49.690;6.472;2023-12-14T01:09:36;7.40;99.90
15364;DHT22;7781;49.690;6.472;2023-12-14T01:12:06;7.30;99.90
15364;DHT22;7781;49.690;6.472;2023-12-14T01:14:35;7.30;99.90
15364;DHT22;7781;49.690;6.472;2023-12-14T01:17:05;7.30;99.90
15364;DHT22;7781;49.690;6.472;2023-12-14T01:19:34;7.20;99.90
15364;DHT22;7781;49.690;6.472;2023-12-14T01:22:04;7.20;99.90
15364;DHT22;7781;49.690;6.472;2023-12-14T01:24:32;7.20;99.90
15364;DHT22;7781;49.690;6.472;2023-12-14T01:27:01;7.10;99.90
15364;DHT22;7781;49.690;6.472;2023-12-14T01:29:32;7.00;99.90
15364;DHT22;7781;49.690;6.472;2023-12-14T01:32:00;7.00;99.90
15364;DHT22;7781;49.690;6.472;2023-12-14T01:34:29;6.90;99.90
15364;DHT22;7781;49.690;6.472;2023-12-14T01:36:58;6.80;99.90
15364;DHT22;7781;49.690;6.472;2023-12-14T01:39:30;6.70;99.90
15364;DHT22;7781;49.690;6.472;2023-12-14T01:41:58;6.70;99.90
15364;DHT22;7781;49.690;6.472;2023-12-14T01:44:27;6.70;99.90
15364;DHT22;7781;49.690;6.472;2023-12-14T01:46:57;6.70;99.90
15364;DHT22;7781;49.690;6.472;2023-12-14T01:49:28;6.70;99.90
15364;DHT22;7781;49.690;6.472;2023-12-14T01:51:58;6.70;99.90
15364;DHT22;7781;49.690;6.472;2023-12-14T01:54:27;6.70;99.90
15364;DHT22;7781;49.690;6.472;2023-12-14T01:56:55;6.80;99.90
15364;DHT22;7781;49.690;6.472;2023-12-14T01:59:23;6.80;99.90
15364;DHT22;7781;49.690;6.472;2023-12-14T02:01:54;6.80;99.90
15364;DHT22;7781;49.690;6.472;2023-12-14T02:04:26;6.80;99.90
15364;DHT22;7781;49.690;6.472;2023-12-14T02:06:54;6.80;99.90
15364;DHT22;7781;49.690;6.472;2023-12-14T02:09:23;6.80;99.90
15364;DHT22;7781;49.690;6.472;2023-12-14T02:11:52;6.80;99.90
15364;DHT22;7781;49.690;6.472;2023-12-14T02:14:21;6.80;99.90
15364;DHT22;7781;49.690;6.472;2023-12-14T02:16:50;6.80;99.90
15364;DHT22;7781;49.690;6.472;2023-12-14T02:19:20;6.90;99.90
15364;DHT22;7781;49.690;6.472;2023-12-14T02:21:50;6.90;99.90
15364;DHT22;7781;49.690;6.472;2023-12-14T02:24:20;6.90;99.90
15364;DHT22;7781;49.690;6.472;2023-12-14T02:26:49;6.90;99.90
15364;DHT22;7781;49.690;6.472;2023-12-14T02:29:30;6.90;99.90
15364;DHT22;7781;49.690;6.472;2023-12-14T02:31:59;6.90;99.90
15364;DHT22;7781;49.690;6.472;2023-12-14T02:34:28;7.00;99.90
15364;DHT22;7781;49.690;6.472;2023-12-14T02:37:00;7.00;99.90
15364;DHT22;7781;49.690;6.472;2023-12-14T02:39:30;7.00;99.90
15364;DHT22;7781;49.690;6.472;2023-12-14T02:41:58;7.00;99.90
15364;DHT22;7781;49.690;6.472;2023-12-14T02:44:26;6.90;99.90
15364;DHT22;7781;49.690;6.472;2023-12-14T02:46:56;6.90;99.90
15364;DHT22;7781;49.690;6.472;2023-12-14T02:49:24;6.90;99.90
15364;DHT22;7781;49.690;6.472;2023-12-14T02:51:53;6.90;99.90
15364;DHT22;7781;49.690;6.472;2023-12-14T02:54:23;6.90;99.90
15364;DHT22;7781;49.690;6.472;2023-12-14T02:56:53;6.80;99.90
15364;DHT22;7781;49.690;6.472;2023-12-14T02:59:22;6.80;99.90
15364;DHT22;7781;49.690;6.472;2023-12-14T03:01:53;6.80;99.90
15364;DHT22;7781;49.690;6.472;2023-12-14T03:04:22;6.80;99.90
15364;DHT22;7781;49.690;6.472;2023-12-14T03:06:50;6.70;99.90
15364;DHT22;7781;49.690;6.472;2023-12-14T03:09:18;6.70;99.90
15364;DHT22;7781;49.690;6.472;2023-12-14T03:11:48;6.60;99.90
15364;DHT22;7781;49.690;6.472;2023-12-14T03:14:18;6.60;99.90
15364;DHT22;7781;49.690;6.472;2023-12-14T03:16:46;6.60;99.90
15364;DHT22;7781;49.690;6.472;2023-12-14T03:19:17;6.60;99.90
15364;DHT22;7781;49.690;6.472;2023-12-14T03:21:47;6.60;99.90
15364;DHT22;7781;49.690;6.472;2023-12-14T03:24:15;6.60;99.90
15364;DHT22;7781;49.690;6.472;2023-12-14T03:26:44;6.60;99.90
15364;DHT22;7781;49.690;6.472;2023-12-14T03:29:13;6.70;99.90
15364;DHT22;7781;49.690;6.472;2023-12-14T03:31:44;6.60;99.90
15364;DHT22;7781;49.690;6.472;2023-12-14T03:34:14;6.60;99.90
15364;DHT22;7781;49.690;6.472;2023-12-14T03:36:43;6.50;99.90
15364;DHT22;7781;49.690;6.472;2023-12-14T03:39:11;6.50;99.90
15364;DHT22;7781;49.690;6.472;2023-12-14T03:41:40;6.40;99.90
15364;DHT22;7781;49.690;6.472;2023-12-14T03:44:09;6.40;99.90
15364;DHT22;7781;49.690;6.472;2023-12-14T03:46:41;6.30;99.90
15364;DHT22;7781;49.690;6.472;2023-12-14T03:49:11;6.30;99.90
15364;DHT22;7781;49.690;6.472;2023-12-14T03:51:40;6.30;99.90
15364;DHT22;7781;49.690;6.472;2023-12-14T03:54:08;6.30;99.90
15364;DHT22;7781;49.690;6.472;2023-12-14T03:56:37;6.30;99.90
15364;DHT22;7781;49.690;6.472;2023-12-14T03:59:05;6.20;99.90
15364;DHT22;7781;49.690;6.472;2023-12-14T04:01:34;6.30;99.90
15364;DHT22;7781;49.690;6.472;2023-12-14T04:04:08;6.30;99.90
15364;DHT22;7781;49.690;6.472;2023-12-14T04:06:38;6.30;99.90
15364;DHT22;7781;49.690;6.472;2023-12-14T04:09:08;6.30;99.90
15364;DHT22;7781;49.690;6.472;2023-12-14T04:11:38;6.30;99.90
15364;DHT22;7781;49.690;6.472;2023-12-14T04:14:07;6.30;99.90
15364;DHT22;7781;49.690;6.472;2023-12-14T04:16:36;6.20;99.90
15364;DHT22;7781;49.690;6.472;2023-12-14T04:19:06;6.10;99.90
15364;DHT22;7781;49.690;6.472;2023-12-14T04:21:39;6.10;99.90
15364;DHT22;7781;49.690;6.472;2023-12-14T04:24:10;6.10;99.90
15364;DHT22;7781;49.690;6.472;2023-12-14T04:26:41;5.90;99.90
15364;DHT22;7781;49.690;6.472;2023-12-14T04:29:09;5.80;99.90
15364;DHT22;7781;49.690;6.472;2023-12-14T04:31:39;5.80;99.90
15364;DHT22;7781;49.690;6.472;2023-12-14T04:34:08;5.80;99.90
15364;DHT22;7781;49.690;6.472;2023-12-14T04:36:43;5.90;99.90
15364;DHT22;7781;49.690;6.472;2023-12-14T04:39:11;5.90;99.90
15364;DHT22;7781;49.690;6.472;2023-12-14T04:41:42;6.00;99.90
15364;DHT22;7781;49.690;6.472;2023-12-14T04:44:12;6.00;99.90
15364;DHT22;7781;49.690;6.472;2023-12-14T04:46:40;6.10;99.90
15364;DHT22;7781;49.690;6.472;2023-12-14T04:49:09;6.00;99.90
15364;DHT22;7781;49.690;6.472;2023-12-14T04:51:38;6.10;99.90
15364;DHT22;7781;49.690;6.472;2023-12-14T04:54:09;6.00;99.90
15364;DHT22;7781;49.690;6.472;2023-12-14T04:56:37;6.10;99.90
15364;DHT22;7781;49.690;6.472;2023-12-14T04:59:08;6.10;99.90
15364;DHT22;7781;49.690;6.472;2023-12-14T05:01:37;6.10;99.90
15364;DHT22;7781;49.690;6.472;2023-12-14T05:04:05;6.10;99.90
15364;DHT22;7781;49.690;6.472;2023-12-14T05:06:37;6.10;99.90
15364;DHT22;7781;49.690;6.472;2023-12-14T05:09:06;6.10;99.90
15364;DHT22;7781;49.690;6.472;2023-12-14T05:11:36;6.10;99.90
15364;DHT22;7781;49.690;6.472;2023-12-14T05:14:05;6.10;99.90
15364;DHT22;7781;49.690;6.472;2023-12-14T05:16:34;6.10;99.90
15364;DHT22;7781;49.690;6.472;2023-12-14T05:19:03;6.10;99.90
15364;DHT22;7781;49.690;6.472;2023-12-14T05:21:32;6.10;99.90
15364;DHT22;7781;49.690;6.472;2023-12-14T05:24:00;6.10;99.90
15364;DHT22;7781;49.690;6.472;2023-12-14T05:26:30;6.00;99.90
15364;DHT22;7781;49.690;6.472;2023-12-14T05:29:00;6.00;99.90
15364;DHT22;7781;49.690;6.472;2023-12-14T05:31:29;5.90;99.90
15364;DHT22;7781;49.690;6.472;2023-12-14T05:33:59;5.80;99.90
15364;DHT22;7781;49.690;6.472;2023-12-14T05:36:28;5.80;99.90
15364;DHT22;7781;49.690;6.472;2023-12-14T05:38:56;5.80;99.90
15364;DHT22;7781;49.690;6.472;2023-12-14T05:41:25;5.90;99.90
15364;DHT22;7781;49.690;6.472;2023-12-14T05:43:53;5.90;99.90
15364;DHT22;7781;49.690;6.472;2023-12-14T05:46:23;6.00;99.90
15364;DHT22;7781;49.690;6.472;2023-12-14T05:48:53;5.90;99.90
15364;DHT22;7781;49.690;6.472;2023-12-14T05:51:30;5.90;99.90
15364;DHT22;7781;49.690;6.472;2023-12-14T05:53:59;5.80;99.90
15364;DHT22;7781;49.690;6.472;2023-12-14T05:56:27;5.80;99.90
15364;DHT22;7781;49.690;6.472;2023-12-14T05:58:57;5.80;99.90
15364;DHT22;7781;49.690;6.472;2023-12-14T06:01:28;5.80;99.90
15364;DHT22;7781;49.690;6.472;2023-12-14T06:03:56;5.80;99.90
15364;DHT22;7781;49.690;6.472;2023-12-14T06:06:26;5.80;99.90
15364;DHT22;7781;49.690;6.472;2023-12-14T06:08:53;5.90;99.90
15364;DHT22;7781;49.690;6.472;2023-12-14T06:11:22;5.90;99.90
15364;DHT22;7781;49.690;6.472;2023-12-14T06:13:51;5.90;99.90
15364;DHT22;7781;49.690;6.472;2023-12-14T06:16:20;5.90;99.90
15364;DHT22;7781;49.690;6.472;2023-12-14T06:18:53;5.80;99.90
15364;DHT22;7781;49.690;6.472;2023-12-14T06:21:23;5.80;99.90
15364;DHT22;7781;49.690;6.472;2023-12-14T06:23:58;5.90;99.90
15364;DHT22;7781;49.690;6.472;2023-12-14T06:26:28;6.00;99.90
15364;DHT22;7781;49.690;6.472;2023-12-14T06:28:58;6.00;99.90
15364;DHT22;7781;49.690;6.472;2023-12-14T06:31:27;6.00;99.90
15364;DHT22;7781;49.690;6.472;2023-12-14T06:33:59;6.00;99.90
15364;DHT22;7781;49.690;6.472;2023-12-14T06:36:30;5.90;99.90
15364;DHT22;7781;49.690;6.472;2023-12-14T06:39:00;5.90;99.90
15364;DHT22;7781;49.690;6.472;2023-12-14T06:41:29;5.90;99.90
15364;DHT22;7781;49.690;6.472;2023-12-14T06:43:57;5.90;99.90
15364;DHT22;7781;49.690;6.472;2023-12-14T06:46:28;5.90;99.90
15364;DHT22;7781;49.690;6.472;2023-12-14T06:48:59;5.90;99.90
15364;DHT22;7781;49.690;6.472;2023-12-14T06:51:29;5.90;99.90
15364;DHT22;7781;49.690;6.472;2023-12-14T06:53:58;5.90;99.90
15364;DHT22;7781;49.690;6.472;2023-12-14T06:56:27;6.00;99.90
15364;DHT22;7781;49.690;6.472;2023-12-14T06:58:55;6.00;99.90
15364;DHT22;7781;49.690;6.472;2023-12-14T07:01:27;6.00;99.90
15364;DHT22;7781;49.690;6.472;2023-12-14T07:03:55;6.00;99.90
15364;DHT22;7781;49.690;6.472;2023-12-14T07:06:25;6.10;99.90
15364;DHT22;7781;49.690;6.472;2023-12-14T07:08:54;6.10;99.90
15364;DHT22;7781;49.690;6.472;2023-12-14T07:11:23;6.10;99.90
15364;DHT22;7781;49.690;6.472;2023-12-14T07:13:53;6.10;99.90
15364;DHT22;7781;49.690;6.472;2023-12-14T07:16:22;6.10;99.90
15364;DHT22;7781;49.690;6.472;2023-12-14T07:18:50;6.20;99.90
15364;DHT22;7781;49.690;6.472;2023-12-14T07:21:19;6.20;99.90
15364;DHT22;7781;49.690;6.472;2023-12-14T07:23:50;6.20;99.90
15364;DHT22;7781;49.690;6.472;2023-12-14T07:26:19;6.20;99.90
15364;DHT22;7781;49.690;6.472;2023-12-14T07:28:48;6.20;99.90
15364;DHT22;7781;49.690;6.472;2023-12-14T07:31:16;6.20;99.90
15364;DHT22;7781;49.690;6.472;2023-12-14T07:33:45;6.20;99.90
15364;DHT22;7781;49.690;6.472;2023-12-14T07:36:14;6.20;99.90
15364;DHT22;7781;49.690;6.472;2023-12-14T07:38:42;6.20;99.90
15364;DHT22;7781;49.690;6.472;2023-12-14T07:41:15;6.30;99.90
15364;DHT22;7781;49.690;6.472;2023-12-14T07:43:45;6.30;99.90
15364;DHT22;7781;49.690;6.472;2023-12-14T07:46:13;6.40;99.90
15364;DHT22;7781;49.690;6.472;2023-12-14T07:48:42;6.40;99.90
15364;DHT22;7781;49.690;6.472;2023-12-14T07:51:12;6.40;99.90
15364;DHT22;7781;49.690;6.472;2023-12-14T07:53:41;6.40;99.90
15364;DHT22;7781;49.690;6.472;2023-12-14T07:56:10;6.40;99.90
15364;DHT22;7781;49.690;6.472;2023-12-14T07:58:40;6.40;99.90
15364;DHT22;7781;49.690;6.472;2023-12-14T08:01:10;6.40;99.90
15364;DHT22;7781;49.690;6.472;2023-12-14T08:03:38;6.30;99.90
15364;DHT22;7781;49.690;6.472;2023-12-14T08:06:07;6.30;99.90
15364;DHT22;7781;49.690;6.472;2023-12-14T08:08:37;6.40;99.90
15364;DHT22;7781;49.690;6.472;2023-12-14T08:11:06;6.40;99.90
15364;DHT22;7781;49.690;6.472;2023-12-14T08:13:34;6.40;99.90
15364;DHT22;7781;49.690;6.472;2023-12-14T08:16:09;6.40;99.90
15364;DHT22;7781;49.690;6.472;2023-12-14T08:18:38;6.40;99.90
15364;DHT22;7781;49.690;6.472;2023-12-14T08:21:09;6.40;99.90
15364;DHT22;7781;49.690;6.472;2023-12-14T08:23:39;6.50;99.90
15364;DHT22;7781;49.690;6.472;2023-12-14T08:26:08;6.50;99.90
15364;DHT22;7781;49.690;6.472;2023-12-14T08:28:38;6.50;99.90
15364;DHT22;7781;49.690;6.472;2023-12-14T08:31:09;6.50;99.90
15364;DHT22;7781;49.690;6.472;2023-12-14T08:33:41;6.50;99.90
15364;DHT22;7781;49.690;6.472;2023-12-14T08:36:15;6.50;99.90
15364;DHT22;7781;49.690;6.472;2023-12-14T08:38:43;6.50;99.90
15364;DHT22;7781;49.690;6.472;2023-12-14T08:41:12;6.50;99.90
15364;DHT22;7781;49.690;6.472;2023-12-14T08:43:44;6.60;99.90
15364;DHT22;7781;49.690;6.472;2023-12-14T08:46:14;6.70;99.90
15364;DHT22;7781;49.690;6.472;2023-12-14T08:48:42;6.70;99.90
15364;DHT22;7781;49.690;6.472;2023-12-14T08:51:11;6.70;99.90
15364;DHT22;7781;49.690;6.472;2023-12-14T08:53:41;6.70;99.90
15364;DHT22;7781;49.690;6.472;2023-12-14T08:56:10;6.70;99.90
15364;DHT22;7781;49.690;6.472;2023-12-14T08:58:41;6.70;99.90
15364;DHT22;7781;49.690;6.472;2023-12-14T09:01:09;6.80;99.90
15364;DHT22;7781;49.690;6.472;2023-12-14T09:03:41;6.80;99.90
15364;DHT22;7781;49.690;6.472;2023-12-14T09:06:10;6.80;99.90
15364;DHT22;7781;49.690;6.472;2023-12-14T09:08:42;6.80;99.90
15364;DHT22;7781;49.690;6.472;2023-12-14T09:11:11;6.90;99.90
15364;DHT22;7781;49.690;6.472;2023-12-14T09:13:39;6.90;99.90
15364;DHT22;7781;49.690;6.472;2023-12-14T09:16:08;7.00;99.90
15364;DHT22;7781;49.690;6.472;2023-12-14T09:18:38;7.10;99.90
15364;DHT22;7781;49.690;6.472;2023-12-14T09:21:07;7.10;99.90
15364;DHT22;7781;49.690;6.472;2023-12-14T09:23:35;7.00;99.90
15364;DHT22;7781;49.690;6.472;2023-12-14T09:26:07;7.00;99.90
15364;DHT22;7781;49.690;6.472;2023-12-14T09:28:37;7.10;99.90
15364;DHT22;7781;49.690;6.472;2023-12-14T09:31:07;7.10;99.90
15364;DHT22;7781;49.690;6.472;2023-12-14T09:33:40;7.20;99.90
15364;DHT22;7781;49.690;6.472;2023-12-14T09:36:11;7.20;99.90
15364;DHT22;7781;49.690;6.472;2023-12-14T09:38:40;7.20;99.90
15364;DHT22;7781;49.690;6.472;2023-12-14T09:41:08;7.30;99.90
15364;DHT22;7781;49.690;6.472;2023-12-14T09:43:39;7.40;99.90
15364;DHT22;7781;49.690;6.472;2023-12-14T09:46:09;7.50;99.90
15364;DHT22;7781;49.690;6.472;2023-12-14T09:48:40;7.50;99.90
15364;DHT22;7781;49.690;6.472;2023-12-14T09:51:11;7.60;99.90
15364;DHT22;7781;49.690;6.472;2023-12-14T09:53:40;7.60;99.90
15364;DHT22;7781;49.690;6.472;2023-12-14T09:56:09;7.60;99.90
15364;DHT22;7781;49.690;6.472;2023-12-14T09:58:38;7.70;99.90
15364;DHT22;7781;49.690;6.472;2023-12-14T10:01:21;7.70;99.90
15364;DHT22;7781;49.690;6.472;2023-12-14T10:04:07;7.60;99.90
15364;DHT22;7781;49.690;6.472;2023-12-14T10:06:36;7.70;99.90
15364;DHT22;7781;49.690;6.472;2023-12-14T10:09:04;7.70;99.90
15364;DHT22;7781;49.690;6.472;2023-12-14T10:11:36;7.80;99.90
15364;DHT22;7781;49.690;6.472;2023-12-14T10:14:18;7.90;99.90
15364;DHT22;7781;49.690;6.472;2023-12-14T10:16:49;7.90;99.90
15364;DHT22;7781;49.690;6.472;2023-12-14T10:19:20;8.00;99.90
15364;DHT22;7781;49.690;6.472;2023-12-14T10:21:50;8.00;99.90
15364;DHT22;7781;49.690;6.472;2023-12-14T10:24:19;8.00;99.90
15364;DHT22;7781;49.690;6.472;2023-12-14T10:26:48;8.10;99.90
15364;DHT22;7781;49.690;6.472;2023-12-14T10:29:18;8.10;99.90
15364;DHT22;7781;49.690;6.472;2023-12-14T10:31:48;8.10;99.90
15364;DHT22;7781;49.690;6.472;2023-12-14T10:34:19;8.10;99.90
15364;DHT22;7781;49.690;6.472;2023-12-14T10:36:48;8.10;99.90
15364;DHT22;7781;49.690;6.472;2023-12-14T10:39:18;8.30;99.90
15364;DHT22;7781;49.690;6.472;2023-12-14T10:41:47;8.40;99.90
15364;DHT22;7781;49.690;6.472;2023-12-14T10:44:27;8.60;99.90
15364;DHT22;7781;49.690;6.472;2023-12-14T10:47:16;8.60;99.90
15364;DHT22;7781;49.690;6.472;2023-12-14T10:49:50;8.70;99.90
15364;DHT22;7781;49.690;6.472;2023-12-14T10:52:20;8.70;99.90
15364;DHT22;7781;49.690;6.472;2023-12-14T10:54:53;8.70;99.90
15364;DHT22;7781;49.690;6.472;2023-12-14T10:57:24;8.60;99.90
15364;DHT22;7781;49.690;6.472;2023-12-14T10:59:59;8.50;85.40
15364;DHT22;7781;49.690;6.472;2023-12-14T11:02:30;8.50;99.90
15364;DHT22;7781;49.690;6.472;2023-12-14T11:05:01;8.60;99.90
15364;DHT22;7781;49.690;6.472;2023-12-14T11:07:48;8.70;99.90
15364;DHT22;7781;49.690;6.472;2023-12-14T11:10:21;8.60;99.90
15364;DHT22;7781;49.690;6.472;2023-12-14T11:12:54;8.60;99.90
15364;DHT22;7781;49.690;6.472;2023-12-14T11:15:24;8.60;99.90
15364;DHT22;7781;49.690;6.472;2023-12-14T11:18:19;8.60;99.90
15364;DHT22;7781;49.690;6.472;2023-12-14T11:20:51;8.50;94.70
15364;DHT22;7781;49.690;6.472;2023-12-14T11:23:28;8.50;86.60
15364;DHT22;7781;49.690;6.472;2023-12-14T11:25:59;8.40;76.30
15364;DHT22;7781;49.690;6.472;2023-12-14T11:28:32;8.30;75.40
15364;DHT22;7781;49.690;6.472;2023-12-14T11:31:01;8.20;51.10
15364;DHT22;7781;49.690;6.472;2023-12-14T11:33:35;8.10;42.20
15364;DHT22;7781;49.690;6.472;2023-12-14T11:36:12;8.00;54.80
15364;DHT22;7781;49.690;6.472;2023-12-14T11:38:42;7.90;42.50
15364;DHT22;7781;49.690;6.472;2023-12-14T11:41:11;7.80;75.30
15364;DHT22;7781;49.690;6.472;2023-12-14T11:43:41;7.80;99.90
15364;DHT22;7781;49.690;6.472;2023-12-14T11:46:10;7.80;54.40
15364;DHT22;7781;49.690;6.472;2023-12-14T11:48:38;7.70;40.30
15364;DHT22;7781;49.690;6.472;2023-12-14T11:51:07;7.60;23.50
15364;DHT22;7781;49.690;6.472;2023-12-14T11:53:38;7.60;13.00
15364;DHT22;7781;49.690;6.472;2023-12-14T11:56:07;7.50;57.20
15364;DHT22;7781;49.690;6.472;2023-12-14T11:58:36;7.50;50.00
15364;DHT22;7781;49.690;6.472;2023-12-14T12:01:14;7.50;44.60
15364;DHT22;7781;49.690;6.472;2023-12-14T12:03:44;7.50;58.00
15364;DHT22;7781;49.690;6.472;2023-12-14T12:06:22;7.50;61.20
15364;DHT22;7781;49.690;6.472;2023-12-14T12:08:53;7.50;24.10
15364;DHT22;7781;49.690;6.472;2023-12-14T12:11:23;7.50;32.20
15364;DHT22;7781;49.690;6.472;2023-12-14T12:13:54;7.40;63.30
15364;DHT22;7781;49.690;6.472;2023-12-14T12:16:23;7.50;60.00
15364;DHT22;7781;49.690;6.472;2023-12-14T12:18:52;7.50;57.20
15364;DHT22;7781;49.690;6.472;2023-12-14T12:21:21;7.60;57.50
15364;DHT22;7781;49.690;6.472;2023-12-14T12:23:51;7.60;66.50
15364;DHT22;7781;49.690;6.472;2023-12-14T12:26:20;7.70;58.40
15364;DHT22;7781;49.690;6.472;2023-12-14T12:28:50;7.70;1.00
15364;DHT22;7781;49.690;6.472;2023-12-14T12:31:19;7.70;1.00
15364;DHT22;7781;49.690;6.472;2023-12-14T12:33:49;7.70;1.00
15364;DHT22;7781;49.690;6.472;2023-12-14T12:36:18;7.70;1.00
15364;DHT22;7781;49.690;6.472;2023-12-14T12:38:46;7.80;1.00
15364;DHT22;7781;49.690;6.472;2023-12-14T12:41:16;7.70;1.00
15364;DHT22;7781;49.690;6.472;2023-12-14T12:43:46;7.70;1.00
15364;DHT22;7781;49.690;6.472;2023-12-14T12:46:15;7.70;1.00
15364;DHT22;7781;49.690;6.472;2023-12-14T12:48:45;7.70;1.00
15364;DHT22;7781;49.690;6.472;2023-12-14T12:51:15;7.70;1.00
15364;DHT22;7781;49.690;6.472;2023-12-14T12:53:43;7.70;1.00
15364;DHT22;7781;49.690;6.472;2023-12-14T12:56:13;7.70;1.00
15364;DHT22;7781;49.690;6.472;2023-12-14T12:58:44;7.50;1.00
15364;DHT22;7781;49.690;6.472;2023-12-14T13:01:12;7.40;1.00
15364;DHT22;7781;49.690;6.472;2023-12-14T13:03:41;7.30;1.00
15364;DHT22;7781;49.690;6.472;2023-12-14T13:06:10;7.30;1.00
15364;DHT22;7781;49.690;6.472;2023-12-14T13:08:38;7.20;1.00
15364;DHT22;7781;49.690;6.472;2023-12-14T13:11:10;7.10;1.00
15364;DHT22;7781;49.690;6.472;2023-12-14T13:13:39;7.10;1.00
15364;DHT22;7781;49.690;6.472;2023-12-14T13:16:09;7.10;1.00
15364;DHT22;7781;49.690;6.472;2023-12-14T13:18:39;7.00;1.00
15364;DHT22;7781;49.690;6.472;2023-12-14T13:21:11;7.00;1.00
15364;DHT22;7781;49.690;6.472;2023-12-14T13:23:40;7.10;1.00
15364;DHT22;7781;49.690;6.472;2023-12-14T13:26:08;7.00;1.00
15364;DHT22;7781;49.690;6.472;2023-12-14T13:28:37;7.00;1.00
15364;DHT22;7781;49.690;6.472;2023-12-14T13:31:06;7.00;1.00
15364;DHT22;7781;49.690;6.472;2023-12-14T13:33:36;7.00;1.00
15364;DHT22;7781;49.690;6.472;2023-12-14T13:36:05;7.00;1.00
15364;DHT22;7781;49.690;6.472;2023-12-14T13:38:35;7.00;1.00
15364;DHT22;7781;49.690;6.472;2023-12-14T13:41:05;7.00;1.00
15364;DHT22;7781;49.690;6.472;2023-12-14T13:43:34;7.00;1.00
15364;DHT22;7781;49.690;6.472;2023-12-14T13:46:03;7.00;1.00
15364;DHT22;7781;49.690;6.472;2023-12-14T13:48:47;6.90;1.00
15364;DHT22;7781;49.690;6.472;2023-12-14T13:51:16;6.90;1.00
15364;DHT22;7781;49.690;6.472;2023-12-14T13:56:29;6.90;1.00
15364;DHT22;7781;49.690;6.472;2023-12-14T13:58:58;6.80;1.00
15364;DHT22;7781;49.690;6.472;2023-12-14T14:01:26;6.80;1.00
15364;DHT22;7781;49.690;6.472;2023-12-14T14:03:56;6.80;1.00
15364;DHT22;7781;49.690;6.472;2023-12-14T14:06:25;6.80;1.00
15364;DHT22;7781;49.690;6.472;2023-12-14T14:08:54;6.80;1.00
15364;DHT22;7781;49.690;6.472;2023-12-14T14:11:23;6.80;99.90
15364;DHT22;7781;49.690;6.472;2023-12-14T14:13:52;6.80;99.90
15364;DHT22;7781;49.690;6.472;2023-12-14T14:16:21;6.70;1.00
15364;DHT22;7781;49.690;6.472;2023-12-14T14:18:52;6.70;99.90
15364;DHT22;7781;49.690;6.472;2023-12-14T14:21:23;6.70;1.00
15364;DHT22;7781;49.690;6.472;2023-12-14T14:23:51;6.80;99.90
15364;DHT22;7781;49.690;6.472;2023-12-14T14:26:20;6.70;1.00
15364;DHT22;7781;49.690;6.472;2023-12-14T14:28:53;6.70;97.90
15364;DHT22;7781;49.690;6.472;2023-12-14T14:31:27;6.70;1.00
15364;DHT22;7781;49.690;6.472;2023-12-14T14:34:00;6.70;78.10
15364;DHT22;7781;49.690;6.472;2023-12-14T14:36:30;6.60;99.90
15364;DHT22;7781;49.690;6.472;2023-12-14T14:38:59;6.60;99.90
15364;DHT22;7781;49.690;6.472;2023-12-14T14:41:27;6.60;99.90
15364;DHT22;7781;49.690;6.472;2023-12-14T14:43:56;6.60;1.00
15364;DHT22;7781;49.690;6.472;2023-12-14T14:46:25;6.60;1.00
15364;DHT22;7781;49.690;6.472;2023-12-14T14:48:55;6.70;1.00
15364;DHT22;7781;49.690;6.472;2023-12-14T14:51:24;6.70;99.90
15364;DHT22;7781;49.690;6.472;2023-12-14T14:53:55;6.70;1.00
15364;DHT22;7781;49.690;6.472;2023-12-14T14:56:24;6.70;99.90
15364;DHT22;7781;49.690;6.472;2023-12-14T14:58:52;6.70;1.00
15364;DHT22;7781;49.690;6.472;2023-12-14T15:01:23;6.70;1.00
15364;DHT22;7781;49.690;6.472;2023-12-14T15:03:52;6.70;1.00
15364;DHT22;7781;49.690;6.472;2023-12-14T15:06:22;6.70;1.00
15364;DHT22;7781;49.690;6.472;2023-12-14T15:08:52;6.70;1.00
15364;DHT22;7781;49.690;6.472;2023-12-14T15:11:23;6.70;1.00
15364;DHT22;7781;49.690;6.472;2023-12-14T15:13:53;6.70;1.00
15364;DHT22;7781;49.690;6.472;2023-12-14T15:16:22;6.70;99.90
15364;DHT22;7781;49.690;6.472;2023-12-14T15:18:52;6.70;1.00
15364;DHT22;7781;49.690;6.472;2023-12-14T15:21:24;6.60;73.70
15364;DHT22;7781;49.690;6.472;2023-12-14T15:23:52;6.60;99.90
15364;DHT22;7781;49.690;6.472;2023-12-14T15:26:23;6.50;1.00
15364;DHT22;7781;49.690;6.472;2023-12-14T15:28:52;6.50;91.40
15364;DHT22;7781;49.690;6.472;2023-12-14T15:31:22;6.50;1.00
15364;DHT22;7781;49.690;6.472;2023-12-14T15:33:51;6.50;1.00
15364;DHT22;7781;49.690;6.472;2023-12-14T15:36:21;6.60;1.00
15364;DHT22;7781;49.690;6.472;2023-12-14T15:38:49;6.60;72.20
15364;DHT22;7781;49.690;6.472;2023-12-14T15:41:18;6.50;99.90
15364;DHT22;7781;49.690;6.472;2023-12-14T15:43:48;6.60;27.40
15364;DHT22;7781;49.690;6.472;2023-12-14T15:46:17;6.70;99.90
15364;DHT22;7781;49.690;6.472;2023-12-14T15:48:46;6.60;99.90
15364;DHT22;7781;49.690;6.472;2023-12-14T15:51:15;6.70;1.00
15364;DHT22;7781;49.690;6.472;2023-12-14T15:53:45;6.60;1.00
15364;DHT22;7781;49.690;6.472;2023-12-14T15:56:14;6.60;99.90
15364;DHT22;7781;49.690;6.472;2023-12-14T15:58:43;6.60;1.00
15364;DHT22;7781;49.690;6.472;2023-12-14T16:01:14;6.50;99.90
15364;DHT22;7781;49.690;6.472;2023-12-14T16:03:43;6.50;1.00
15364;DHT22;7781;49.690;6.472;2023-12-14T16:06:13;6.50;99.90
15364;DHT22;7781;49.690;6.472;2023-12-14T16:08:43;6.50;1.00
15364;DHT22;7781;49.690;6.472;2023-12-14T16:11:11;6.60;1.00
15364;DHT22;7781;49.690;6.472;2023-12-14T16:13:40;6.60;1.00
15364;DHT22;7781;49.690;6.472;2023-12-14T16:16:10;6.50;1.00
15364;DHT22;7781;49.690;6.472;2023-12-14T16:18:43;6.50;1.00
15364;DHT22;7781;49.690;6.472;2023-12-14T16:21:11;6.50;18.50
15364;DHT22;7781;49.690;6.472;2023-12-14T16:23:40;6.50;99.90